Decatur, Tennessee
Current Conditions -  °F | °C
As of 12:35 PM on Sunday 23 Nov 2014 (Local Time) from KMMI Reporting Station
Overcast Overcast  
Wind Chill: 57°   Ceiling: 3000
Heat Index: 57°   Visibility: 10mi
Dew Point: 54°   Wind: 9mph
Humidity: 88%   Direction: 130°SE
Pressure: 29.85"   Gusts: NA
Location:  35.51°N, 84.79°W
Report Text: KMMI 231735Z AUTO 13008KT 10SM SCT025 BKN030 OVC060 14/12 A2985 RMK
Loading
Personal Weather Stations






























Interactive Weather Map New forecast layout! Learn more

10-Day Weather Forecast

Advertisements
Track Severe Weather on mobile